createdAt,value
2023-03-30T00:01:21.288Z,6.60
2023-03-30T00:06:24.669Z,6.50
2023-03-30T00:08:57.523Z,6.50
2023-03-30T00:11:26.595Z,6.50
2023-03-30T00:36:16.837Z,6.40
2023-03-30T00:44:02.531Z,6.30
2023-03-30T00:46:31.474Z,6.40
2023-03-30T00:49:05.475Z,6.40
2023-03-30T00:51:37.464Z,6.30
2023-03-30T00:54:09.700Z,6.30
2023-03-30T01:04:09.560Z,6.20
2023-03-30T01:06:40.316Z,6.20
2023-03-30T01:14:08.117Z,6.00
2023-03-30T01:17:13.736Z,5.90
2023-03-30T01:20:00.457Z,5.80
2023-03-30T01:25:21.574Z,5.70
2023-03-30T01:28:25.587Z,5.60
2023-03-30T01:31:11.613Z,5.40
2023-03-30T01:33:48.239Z,5.40
2023-03-30T01:37:02.957Z,5.20
2023-03-30T01:42:27.362Z,5.20
2023-03-30T01:45:09.886Z,5.10
2023-03-30T01:47:59.067Z,5.10
2023-03-30T01:50:37.479Z,5.10
2023-03-30T01:53:26.010Z,5.10
2023-03-30T01:55:59.358Z,5.10
2023-03-30T01:58:39.717Z,5.10
2023-03-30T02:01:08.786Z,5.10
2023-03-30T02:03:40.895Z,5.30
2023-03-30T02:06:21.026Z,5.40
2023-03-30T02:08:51.049Z,5.40
2023-03-30T02:16:25.133Z,5.00
2023-03-30T02:23:53.480Z,5.30
2023-03-30T02:26:23.002Z,5.20
2023-03-30T02:28:51.894Z,5.20
2023-03-30T02:34:18.812Z,5.20
2023-03-30T02:37:10.345Z,5.10
2023-03-30T02:42:22.653Z,5.20
2023-03-30T02:45:27.596Z,5.20
2023-03-30T02:47:58.289Z,5.10
2023-03-30T02:50:47.277Z,5.10
2023-03-30T02:53:41.382Z,5.10
2023-03-30T02:56:37.731Z,5.10
2023-03-30T02:59:14.202Z,5.10
2023-03-30T03:01:53.369Z,5.00
2023-03-30T03:04:24.220Z,5.60
2023-03-30T03:32:51.856Z,4.70
2023-03-30T03:50:51.340Z,4.70
2023-03-30T04:44:07.028Z,4.90
2023-03-30T04:55:51.921Z,5.10
2023-03-30T05:06:55.576Z,4.90
2023-03-30T07:02:43.525Z,6.90
2023-03-30T07:25:42.039Z,7.40
2023-03-30T07:51:04.565Z,8.90
2023-03-30T08:23:53.785Z,9.30
2023-03-30T08:38:42.071Z,9.40
2023-03-30T08:41:24.898Z,9.20
2023-03-30T08:44:02.879Z,9.20
2023-03-30T08:49:04.651Z,9.80
2023-03-30T08:51:34.188Z,10.00
2023-03-30T08:54:07.896Z,10.20
2023-03-30T08:56:58.494Z,10.20
2023-03-30T08:59:53.638Z,10.10
2023-03-30T09:02:38.216Z,10.10
2023-03-30T09:05:30.876Z,10.20
2023-03-30T09:10:29.283Z,10.40
2023-03-30T09:13:00.084Z,10.40
2023-03-30T09:15:32.505Z,10.70
2023-03-30T09:18:06.850Z,10.90
2023-03-30T09:20:37.953Z,11.80
2023-03-30T09:23:07.312Z,11.20
2023-03-30T09:28:42.327Z,11.70
2023-03-30T09:31:27.775Z,11.10
2023-03-30T09:37:08.347Z,12.60
2023-03-30T09:39:37.812Z,13.20
2023-03-30T09:42:35.879Z,12.50
2023-03-30T09:45:17.785Z,12.70
2023-03-30T09:47:45.963Z,13.80
2023-03-30T09:50:24.836Z,12.60
2023-03-30T09:53:04.050Z,12.50
2023-03-30T09:55:36.575Z,12.80
2023-03-30T09:58:40.599Z,12.40
2023-03-30T10:01:14.211Z,13.00
2023-03-30T10:03:44.125Z,12.00
2023-03-30T10:06:13.415Z,12.00
2023-03-30T10:08:51.400Z,11.40
2023-03-30T10:11:38.107Z,11.20
2023-03-30T10:14:07.543Z,10.30
2023-03-30T10:16:35.778Z,10.80
2023-03-30T10:19:10.875Z,11.00
2023-03-30T10:21:51.282Z,11.50
2023-03-30T10:24:25.696Z,11.30
2023-03-30T10:26:57.339Z,12.20
2023-03-30T10:29:28.391Z,11.60
2023-03-30T10:32:15.134Z,12.00
2023-03-30T10:34:46.991Z,11.40
2023-03-30T10:37:26.513Z,11.50
2023-03-30T10:39:56.268Z,12.60
2023-03-30T10:42:26.981Z,12.70
2023-03-30T10:44:58.715Z,13.20
2023-03-30T10:47:44.451Z,13.20
2023-03-30T10:50:36.104Z,13.30
2023-03-30T10:53:26.924Z,13.80
2023-03-30T10:56:07.147Z,14.40
2023-03-30T10:58:56.670Z,14.10
2023-03-30T11:01:37.411Z,14.10
2023-03-30T11:04:26.966Z,14.10
2023-03-30T11:06:58.576Z,13.80
2023-03-30T11:09:39.737Z,13.30
2023-03-30T11:12:13.957Z,13.00
2023-03-30T11:14:49.610Z,12.70
2023-03-30T11:17:27.260Z,12.70
2023-03-30T11:20:01.936Z,12.80
2023-03-30T11:22:43.690Z,12.70
2023-03-30T11:25:24.333Z,13.20
2023-03-30T11:27:59.778Z,13.00
2023-03-30T11:30:32.918Z,13.00
2023-03-30T11:33:25.445Z,12.40
2023-03-30T11:36:14.043Z,12.00
2023-03-30T11:38:49.410Z,11.80
2023-03-30T11:41:24.467Z,11.70
2023-03-30T11:43:56.125Z,13.10
2023-03-30T11:51:52.912Z,12.70
2023-03-30T11:54:28.177Z,12.70
2023-03-30T11:57:11.384Z,12.80
2023-03-30T11:59:39.355Z,12.70
2023-03-30T12:02:20.977Z,12.80
2023-03-30T12:04:58.076Z,12.70
2023-03-30T12:07:43.879Z,12.70
2023-03-30T12:10:40.638Z,12.60
2023-03-30T12:13:16.715Z,12.50
2023-03-30T12:15:51.696Z,12.40
2023-03-30T12:18:51.480Z,12.40
2023-03-30T12:21:41.439Z,12.70
2023-03-30T12:25:00.989Z,12.30
2023-03-30T12:27:31.530Z,12.20
2023-03-30T12:30:14.367Z,12.30
2023-03-30T12:33:12.538Z,12.00
2023-03-30T12:35:48.610Z,12.60
2023-03-30T12:38:21.927Z,12.10
2023-03-30T12:41:14.771Z,12.00
2023-03-30T12:44:04.531Z,12.20
2023-03-30T12:46:42.268Z,12.60
2023-03-30T12:52:14.029Z,12.80
2023-03-30T12:55:12.782Z,12.90
2023-03-30T12:58:17.521Z,13.20
2023-03-30T13:00:54.401Z,12.80
2023-03-30T13:03:36.856Z,13.50
2023-03-30T13:06:09.218Z,13.20
2023-03-30T13:08:42.328Z,13.30
2023-03-30T13:11:18.948Z,13.40
2023-03-30T13:13:46.684Z,13.30
2023-03-30T13:16:14.588Z,13.10
2023-03-30T13:18:55.774Z,13.10
2023-03-30T13:21:26.088Z,12.90
2023-03-30T13:24:04.425Z,12.90
2023-03-30T13:26:42.709Z,12.70
2023-03-30T13:29:17.387Z,13.00
2023-03-30T13:32:03.030Z,13.10
2023-03-30T13:35:07.387Z,12.10
2023-03-30T13:37:44.517Z,12.50
2023-03-30T13:40:35.050Z,12.60
2023-03-30T13:43:18.657Z,12.40
2023-03-30T13:45:46.063Z,12.20
2023-03-30T13:48:26.434Z,12.80
2023-03-30T13:51:00.013Z,12.20
2023-03-30T13:53:32.836Z,12.20
2023-03-30T13:56:00.470Z,12.70
2023-03-30T13:58:34.081Z,12.00
2023-03-30T14:01:11.337Z,12.40
2023-03-30T14:04:10.449Z,12.00
2023-03-30T14:06:47.214Z,12.10
2023-03-30T14:09:26.462Z,11.70
2023-03-30T14:11:58.060Z,11.90
2023-03-30T14:14:37.595Z,11.80
2023-03-30T14:17:18.228Z,11.40
2023-03-30T14:19:57.797Z,11.50
2023-03-30T14:22:27.521Z,12.30
2023-03-30T14:25:02.948Z,11.60
2023-03-30T14:27:39.030Z,11.30
2023-03-30T14:30:25.949Z,12.40
2023-03-30T14:33:07.416Z,12.80
2023-03-30T14:35:40.339Z,12.10
2023-03-30T14:38:16.858Z,12.00
2023-03-30T14:40:45.841Z,12.10
2023-03-30T14:43:16.691Z,12.10
2023-03-30T14:45:44.703Z,11.70
2023-03-30T14:48:23.012Z,11.70
2023-03-30T14:53:27.657Z,11.60
2023-03-30T14:55:58.532Z,11.60
2023-03-30T14:58:30.412Z,12.60
2023-03-30T15:01:01.747Z,12.60
2023-03-30T15:03:34.384Z,12.60
2023-03-30T15:06:07.929Z,13.50
2023-03-30T15:08:41.202Z,12.80
2023-03-30T15:11:12.890Z,13.90
2023-03-30T15:13:49.104Z,13.40
2023-03-30T15:16:23.661Z,13.70
2023-03-30T15:18:53.494Z,13.40
2023-03-30T15:21:22.103Z,14.10
2023-03-30T15:23:51.150Z,14.10
2023-03-30T15:26:19.390Z,12.60
2023-03-30T15:28:51.234Z,13.40
2023-03-30T15:31:20.756Z,13.60
2023-03-30T15:33:54.170Z,12.70
2023-03-30T15:36:37.126Z,13.40
2023-03-30T15:39:23.184Z,13.00
2023-03-30T15:41:56.560Z,13.50
2023-03-30T15:44:24.416Z,13.10
2023-03-30T15:46:56.395Z,12.80
2023-03-30T15:49:55.739Z,12.70
2023-03-30T15:52:29.681Z,12.20
2023-03-30T15:57:29.711Z,12.40
2023-03-30T16:00:05.622Z,12.80
2023-03-30T16:02:40.495Z,12.00
2023-03-30T16:05:21.006Z,12.20
2023-03-30T16:07:48.754Z,12.00
2023-03-30T16:10:22.126Z,12.80
2023-03-30T16:12:51.193Z,11.60
2023-03-30T16:15:28.577Z,11.70
2023-03-30T16:17:57.848Z,12.40
2023-03-30T16:20:31.536Z,11.70
2023-03-30T16:22:59.979Z,10.70
2023-03-30T16:30:34.970Z,11.90
2023-03-30T16:35:32.237Z,11.70
2023-03-30T16:40:41.506Z,11.80
2023-03-30T16:45:40.296Z,12.30
2023-03-30T16:50:50.365Z,11.70
2023-03-30T16:53:20.076Z,11.50
2023-03-30T16:58:17.999Z,11.30
2023-03-30T17:00:55.953Z,11.20
2023-03-30T17:05:55.870Z,11.40
2023-03-30T17:08:26.345Z,11.00
2023-03-30T17:11:05.696Z,10.90
2023-03-30T17:16:06.434Z,10.70
2023-03-30T17:18:36.607Z,11.70
2023-03-30T17:26:04.434Z,10.90
2023-03-30T17:28:36.393Z,10.50
2023-03-30T17:31:15.299Z,10.60
2023-03-30T17:36:17.746Z,10.50
2023-03-30T17:41:16.038Z,10.50
2023-03-30T17:46:14.334Z,10.40
2023-03-30T18:01:08.427Z,10.00
2023-03-30T18:06:07.960Z,9.90
2023-03-30T18:11:05.061Z,9.70
2023-03-30T18:18:31.273Z,9.90
2023-03-30T18:21:04.936Z,9.80
2023-03-30T18:23:34.649Z,9.80
2023-03-30T18:26:09.323Z,9.70
2023-03-30T18:31:13.141Z,10.40
2023-03-30T18:33:41.483Z,9.50
2023-03-30T18:36:13.368Z,9.40
2023-03-30T18:41:13.337Z,9.30
2023-03-30T18:46:13.033Z,9.00
2023-03-30T18:51:11.306Z,9.10
2023-03-30T19:06:14.019Z,9.40
2023-03-30T19:11:16.430Z,9.90
2023-03-30T19:21:18.077Z,10.40
2023-03-30T19:31:16.018Z,10.50
2023-03-30T19:38:41.037Z,10.50
2023-03-30T19:53:33.144Z,10.80
2023-03-30T20:01:05.552Z,10.60
2023-03-30T20:03:36.628Z,10.60
2023-03-30T20:06:15.117Z,10.50
2023-03-30T20:16:20.513Z,10.20
2023-03-30T20:18:51.149Z,10.20
2023-03-30T20:31:14.225Z,10.00
2023-03-30T20:33:43.347Z,10.40
2023-03-30T20:51:23.596Z,9.70
2023-03-30T21:01:27.391Z,9.80
2023-03-30T21:04:00.530Z,9.80
2023-03-30T21:06:30.868Z,9.70
2023-03-30T21:09:01.786Z,9.70
2023-03-30T21:11:30.798Z,9.70
2023-03-30T21:13:59.951Z,10.90
2023-03-30T21:16:29.793Z,10.20
2023-03-30T21:29:02.938Z,9.50
2023-03-30T21:31:32.694Z,9.50
2023-03-30T21:46:26.983Z,9.50
2023-03-30T21:51:28.271Z,9.60
2023-03-30T21:56:26.445Z,9.60
2023-03-30T22:01:26.112Z,9.50
2023-03-30T22:03:55.584Z,9.50
2023-03-30T22:11:25.115Z,9.50
2023-03-30T22:16:28.267Z,9.60
2023-03-30T22:21:29.415Z,9.50
2023-03-30T22:36:25.426Z,9.60
2023-03-30T22:43:53.304Z,9.60
2023-03-30T22:53:59.491Z,9.60
2023-03-30T22:56:28.739Z,9.50
2023-03-30T23:21:11.244Z,9.60
2023-03-30T23:26:09.896Z,9.60
2023-03-30T23:28:42.256Z,9.60
2023-03-30T23:31:12.721Z,9.60
2023-03-30T23:33:41.552Z,9.60
2023-03-30T23:36:10.455Z,9.50
